SDAI weather

Americana Airport
Americana, São Paulo, Brazil

Public forecast

Using degrees Celsius for public forecast. Weather courtesy of forecast.io.

Closest aviation weather report (METAR) to Americana Airport

Closest report is Viracopos International Airport, 16.8 nm (31.2 km) SSE. Retrieved 2020/07/08 09:00 UTC (54 minutes ago):

SBKP 080900Z 03007KT CAVOK 18/08 Q1015

Closest aviation forecast (TAF) to Americana Airport

Closest forecast is Viracopos International Airport, 16.8 nm (31.2 km) SSE. Retrieved 2020/07/08 06:00 UTC (4 hours ago):

TAF SBKP 080200Z 0806/0906 34005KT CAVOK TN16/0809Z TX28/0818Z BECMG 0813/0815 34008KT TEMPO 0815/0818 33013G27KT 9999 FEW040 BECMG 0820/0822 32010KT BECMG 0900/0902 27007KT SCT040 RMK PHH